sensor_id;sensor_type;location;lat;lon;timestamp;temperature;humidity
59975;DHT22;62136;-35.664;-63.766;2023-05-10T00:01:53;20.20;54.30
59975;DHT22;62136;-35.664;-63.766;2023-05-10T00:04:20;20.20;54.20
59975;DHT22;62136;-35.664;-63.766;2023-05-10T00:06:47;20.20;54.20
59975;DHT22;62136;-35.664;-63.766;2023-05-10T00:09:15;20.20;54.30
59975;DHT22;62136;-35.664;-63.766;2023-05-10T00:11:42;20.20;54.50
59975;DHT22;62136;-35.664;-63.766;2023-05-10T00:14:09;20.20;54.40
59975;DHT22;62136;-35.664;-63.766;2023-05-10T00:16:36;20.20;54.20
59975;DHT22;62136;-35.664;-63.766;2023-05-10T00:19:03;20.10;54.20
59975;DHT22;62136;-35.664;-63.766;2023-05-10T00:21:30;20.00;54.80
59975;DHT22;62136;-35.664;-63.766;2023-05-10T00:23:58;20.00;54.90
59975;DHT22;62136;-35.664;-63.766;2023-05-10T00:26:25;20.00;55.00
59975;DHT22;62136;-35.664;-63.766;2023-05-10T00:28:52;20.00;55.00
59975;DHT22;62136;-35.664;-63.766;2023-05-10T00:31:20;20.00;55.10
59975;DHT22;62136;-35.664;-63.766;2023-05-10T00:33:47;20.00;55.20
59975;DHT22;62136;-35.664;-63.766;2023-05-10T00:36:14;20.00;55.20
59975;DHT22;62136;-35.664;-63.766;2023-05-10T00:38:42;20.00;55.30
59975;DHT22;62136;-35.664;-63.766;2023-05-10T00:41:12;20.00;55.40
59975;DHT22;62136;-35.664;-63.766;2023-05-10T00:43:39;20.00;55.30
59975;DHT22;62136;-35.664;-63.766;2023-05-10T00:46:06;20.00;55.20
59975;DHT22;62136;-35.664;-63.766;2023-05-10T00:48:33;20.00;55.20
59975;DHT22;62136;-35.664;-63.766;2023-05-10T00:51:01;20.00;54.90
59975;DHT22;62136;-35.664;-63.766;2023-05-10T00:53:31;20.00;54.90
59975;DHT22;62136;-35.664;-63.766;2023-05-10T00:55:59;20.00;54.90
59975;DHT22;62136;-35.664;-63.766;2023-05-10T00:58:27;20.00;54.60
59975;DHT22;62136;-35.664;-63.766;2023-05-10T01:00:55;19.90;54.70
59975;DHT22;62136;-35.664;-63.766;2023-05-10T01:03:23;19.90;54.70
59975;DHT22;62136;-35.664;-63.766;2023-05-10T01:05:51;19.90;54.50
59975;DHT22;62136;-35.664;-63.766;2023-05-10T01:08:18;19.90;54.50
59975;DHT22;62136;-35.664;-63.766;2023-05-10T01:10:45;19.90;54.60
59975;DHT22;62136;-35.664;-63.766;2023-05-10T01:13:24;19.90;54.50
59975;DHT22;62136;-35.664;-63.766;2023-05-10T01:15:53;19.90;54.70
59975;DHT22;62136;-35.664;-63.766;2023-05-10T01:18:22;19.90;54.60
59975;DHT22;62136;-35.664;-63.766;2023-05-10T01:21:00;19.90;54.70
59975;DHT22;62136;-35.664;-63.766;2023-05-10T01:29:11;19.80;54.40
59975;DHT22;62136;-35.664;-63.766;2023-05-10T01:32:05;19.80;54.30
59975;DHT22;62136;-35.664;-63.766;2023-05-10T01:37:25;19.70;54.10
59975;DHT22;62136;-35.664;-63.766;2023-05-10T01:43:01;19.70;54.10
59975;DHT22;62136;-35.664;-63.766;2023-05-10T01:48:25;19.70;54.00
59975;DHT22;62136;-35.664;-63.766;2023-05-10T01:50:54;19.70;54.00
59975;DHT22;62136;-35.664;-63.766;2023-05-10T01:53:23;19.70;54.20
59975;DHT22;62136;-35.664;-63.766;2023-05-10T01:55:52;19.60;54.10
59975;DHT22;62136;-35.664;-63.766;2023-05-10T01:58:30;19.60;54.10
59975;DHT22;62136;-35.664;-63.766;2023-05-10T02:00:59;19.60;54.10
59975;DHT22;62136;-35.664;-63.766;2023-05-10T02:03:28;19.60;54.20
59975;DHT22;62136;-35.664;-63.766;2023-05-10T02:05:58;19.60;54.20
59975;DHT22;62136;-35.664;-63.766;2023-05-10T02:08:26;19.60;54.20
59975;DHT22;62136;-35.664;-63.766;2023-05-10T02:10:56;19.50;54.20
59975;DHT22;62136;-35.664;-63.766;2023-05-10T02:13:26;19.50;54.20
59975;DHT22;62136;-35.664;-63.766;2023-05-10T02:15:55;19.50;54.30
59975;DHT22;62136;-35.664;-63.766;2023-05-10T02:18:24;19.50;54.30
59975;DHT22;62136;-35.664;-63.766;2023-05-10T02:20:57;19.50;54.30
59975;DHT22;62136;-35.664;-63.766;2023-05-10T02:23:26;19.50;54.30
59975;DHT22;62136;-35.664;-63.766;2023-05-10T02:25:55;19.50;54.40
59975;DHT22;62136;-35.664;-63.766;2023-05-10T02:28:24;19.50;54.40
59975;DHT22;62136;-35.664;-63.766;2023-05-10T02:30:53;19.50;54.30
59975;DHT22;62136;-35.664;-63.766;2023-05-10T02:33:21;19.40;54.50
59975;DHT22;62136;-35.664;-63.766;2023-05-10T02:35:50;19.40;54.30
59975;DHT22;62136;-35.664;-63.766;2023-05-10T02:38:18;19.40;54.30
59975;DHT22;62136;-35.664;-63.766;2023-05-10T02:40:48;19.40;54.30
59975;DHT22;62136;-35.664;-63.766;2023-05-10T02:43:17;19.40;54.30
59975;DHT22;62136;-35.664;-63.766;2023-05-10T02:45:47;19.40;54.30
59975;DHT22;62136;-35.664;-63.766;2023-05-10T02:48:15;19.30;54.30
59975;DHT22;62136;-35.664;-63.766;2023-05-10T02:50:44;19.30;54.30
59975;DHT22;62136;-35.664;-63.766;2023-05-10T02:53:22;19.30;54.30
59975;DHT22;62136;-35.664;-63.766;2023-05-10T02:55:51;19.30;54.30
59975;DHT22;62136;-35.664;-63.766;2023-05-10T02:58:19;19.30;54.30
59975;DHT22;62136;-35.664;-63.766;2023-05-10T03:00:47;19.30;54.30
59975;DHT22;62136;-35.664;-63.766;2023-05-10T03:03:14;19.30;54.30
59975;DHT22;62136;-35.664;-63.766;2023-05-10T03:05:41;19.30;54.30
59975;DHT22;62136;-35.664;-63.766;2023-05-10T03:08:08;19.20;54.30
59975;DHT22;62136;-35.664;-63.766;2023-05-10T03:10:50;19.20;54.30
59975;DHT22;62136;-35.664;-63.766;2023-05-10T03:13:38;19.20;54.30
59975;DHT22;62136;-35.664;-63.766;2023-05-10T03:16:16;19.20;54.30
59975;DHT22;62136;-35.664;-63.766;2023-05-10T03:19:16;19.20;54.30
59975;DHT22;62136;-35.664;-63.766;2023-05-10T03:21:45;19.10;54.30
59975;DHT22;62136;-35.664;-63.766;2023-05-10T03:24:14;19.10;54.30
59975;DHT22;62136;-35.664;-63.766;2023-05-10T03:26:43;19.10;54.30
59975;DHT22;62136;-35.664;-63.766;2023-05-10T03:29:13;19.10;54.40
59975;DHT22;62136;-35.664;-63.766;2023-05-10T03:31:41;19.10;54.30
59975;DHT22;62136;-35.664;-63.766;2023-05-10T03:34:08;19.10;54.30
59975;DHT22;62136;-35.664;-63.766;2023-05-10T03:36:37;19.10;54.30
59975;DHT22;62136;-35.664;-63.766;2023-05-10T03:39:04;19.10;54.30
59975;DHT22;62136;-35.664;-63.766;2023-05-10T03:41:31;19.10;54.40
59975;DHT22;62136;-35.664;-63.766;2023-05-10T03:43:58;19.00;54.30
59975;DHT22;62136;-35.664;-63.766;2023-05-10T03:46:25;19.00;54.30
59975;DHT22;62136;-35.664;-63.766;2023-05-10T03:48:52;19.00;54.30
59975;DHT22;62136;-35.664;-63.766;2023-05-10T03:51:19;19.00;54.40
59975;DHT22;62136;-35.664;-63.766;2023-05-10T03:53:46;19.00;54.40
59975;DHT22;62136;-35.664;-63.766;2023-05-10T03:56:19;19.00;54.30
59975;DHT22;62136;-35.664;-63.766;2023-05-10T03:58:47;19.00;54.30
59975;DHT22;62136;-35.664;-63.766;2023-05-10T04:01:14;19.00;54.40
59975;DHT22;62136;-35.664;-63.766;2023-05-10T04:03:42;18.90;54.30
59975;DHT22;62136;-35.664;-63.766;2023-05-10T04:06:09;18.90;54.30
59975;DHT22;62136;-35.664;-63.766;2023-05-10T04:08:38;18.90;54.30
59975;DHT22;62136;-35.664;-63.766;2023-05-10T04:11:09;18.90;54.30
59975;DHT22;62136;-35.664;-63.766;2023-05-10T04:13:37;18.90;54.30
59975;DHT22;62136;-35.664;-63.766;2023-05-10T04:16:04;18.90;54.30
59975;DHT22;62136;-35.664;-63.766;2023-05-10T04:18:32;18.90;54.30
59975;DHT22;62136;-35.664;-63.766;2023-05-10T04:20:59;18.90;54.30
59975;DHT22;62136;-35.664;-63.766;2023-05-10T04:23:29;18.80;54.20
59975;DHT22;62136;-35.664;-63.766;2023-05-10T04:26:00;18.80;54.20
59975;DHT22;62136;-35.664;-63.766;2023-05-10T04:28:27;18.80;54.20
59975;DHT22;62136;-35.664;-63.766;2023-05-10T04:31:04;18.80;54.20
59975;DHT22;62136;-35.664;-63.766;2023-05-10T04:33:32;18.80;54.20
59975;DHT22;62136;-35.664;-63.766;2023-05-10T04:35:59;18.80;54.30
59975;DHT22;62136;-35.664;-63.766;2023-05-10T04:38:27;18.70;54.20
59975;DHT22;62136;-35.664;-63.766;2023-05-10T04:40:54;18.70;54.30
59975;DHT22;62136;-35.664;-63.766;2023-05-10T04:43:29;18.70;54.20
59975;DHT22;62136;-35.664;-63.766;2023-05-10T04:45:57;18.70;54.30
59975;DHT22;62136;-35.664;-63.766;2023-05-10T04:48:27;18.70;54.20
59975;DHT22;62136;-35.664;-63.766;2023-05-10T04:50:54;18.70;54.20
59975;DHT22;62136;-35.664;-63.766;2023-05-10T04:53:21;18.70;54.20
59975;DHT22;62136;-35.664;-63.766;2023-05-10T04:55:48;18.70;54.20
59975;DHT22;62136;-35.664;-63.766;2023-05-10T04:58:15;18.70;54.20
59975;DHT22;62136;-35.664;-63.766;2023-05-10T05:00:42;18.70;54.20
59975;DHT22;62136;-35.664;-63.766;2023-05-10T05:03:10;18.60;54.20
59975;DHT22;62136;-35.664;-63.766;2023-05-10T05:05:37;18.60;54.20
59975;DHT22;62136;-35.664;-63.766;2023-05-10T05:08:05;18.60;54.30
59975;DHT22;62136;-35.664;-63.766;2023-05-10T05:10:32;18.60;54.20
59975;DHT22;62136;-35.664;-63.766;2023-05-10T05:12:59;18.60;54.20
59975;DHT22;62136;-35.664;-63.766;2023-05-10T05:15:26;18.60;54.20
59975;DHT22;62136;-35.664;-63.766;2023-05-10T05:17:53;18.60;54.20
59975;DHT22;62136;-35.664;-63.766;2023-05-10T05:20:20;18.60;54.20
59975;DHT22;62136;-35.664;-63.766;2023-05-10T05:22:47;18.50;54.20
59975;DHT22;62136;-35.664;-63.766;2023-05-10T05:25:15;18.60;54.20
59975;DHT22;62136;-35.664;-63.766;2023-05-10T05:27:42;18.60;54.30
59975;DHT22;62136;-35.664;-63.766;2023-05-10T05:30:10;18.50;54.20
59975;DHT22;62136;-35.664;-63.766;2023-05-10T05:32:37;18.50;54.20
59975;DHT22;62136;-35.664;-63.766;2023-05-10T05:35:05;18.50;54.20
59975;DHT22;62136;-35.664;-63.766;2023-05-10T05:37:32;18.50;54.20
59975;DHT22;62136;-35.664;-63.766;2023-05-10T05:39:59;18.50;54.20
59975;DHT22;62136;-35.664;-63.766;2023-05-10T05:42:28;18.40;54.10
59975;DHT22;62136;-35.664;-63.766;2023-05-10T05:44:55;18.50;54.10
59975;DHT22;62136;-35.664;-63.766;2023-05-10T05:47:22;18.40;54.10
59975;DHT22;62136;-35.664;-63.766;2023-05-10T05:49:49;18.40;54.10
59975;DHT22;62136;-35.664;-63.766;2023-05-10T05:52:16;18.40;54.10
59975;DHT22;62136;-35.664;-63.766;2023-05-10T05:54:43;18.40;54.10
59975;DHT22;62136;-35.664;-63.766;2023-05-10T05:57:10;18.40;54.10
59975;DHT22;62136;-35.664;-63.766;2023-05-10T05:59:37;18.40;54.10
59975;DHT22;62136;-35.664;-63.766;2023-05-10T06:02:09;18.40;54.10
59975;DHT22;62136;-35.664;-63.766;2023-05-10T06:04:36;18.30;54.10
59975;DHT22;62136;-35.664;-63.766;2023-05-10T06:07:03;18.30;54.10
59975;DHT22;62136;-35.664;-63.766;2023-05-10T06:09:30;18.40;54.10
59975;DHT22;62136;-35.664;-63.766;2023-05-10T06:11:57;18.30;54.00
59975;DHT22;62136;-35.664;-63.766;2023-05-10T06:14:24;18.30;54.00
59975;DHT22;62136;-35.664;-63.766;2023-05-10T06:16:51;18.30;54.10
59975;DHT22;62136;-35.664;-63.766;2023-05-10T06:19:18;18.20;54.00
59975;DHT22;62136;-35.664;-63.766;2023-05-10T06:21:46;18.20;54.00
59975;DHT22;62136;-35.664;-63.766;2023-05-10T06:24:13;18.20;54.00
59975;DHT22;62136;-35.664;-63.766;2023-05-10T06:26:40;18.20;54.00
59975;DHT22;62136;-35.664;-63.766;2023-05-10T06:29:07;18.20;54.00
59975;DHT22;62136;-35.664;-63.766;2023-05-10T06:31:34;18.20;54.00
59975;DHT22;62136;-35.664;-63.766;2023-05-10T06:34:01;18.20;53.90
59975;DHT22;62136;-35.664;-63.766;2023-05-10T06:36:28;18.20;53.90
59975;DHT22;62136;-35.664;-63.766;2023-05-10T06:38:55;18.20;54.00
59975;DHT22;62136;-35.664;-63.766;2023-05-10T06:41:22;18.20;53.90
59975;DHT22;62136;-35.664;-63.766;2023-05-10T06:43:50;18.10;53.90
59975;DHT22;62136;-35.664;-63.766;2023-05-10T06:46:17;18.10;53.90
59975;DHT22;62136;-35.664;-63.766;2023-05-10T06:48:44;18.10;53.90
59975;DHT22;62136;-35.664;-63.766;2023-05-10T06:51:11;18.10;53.80
59975;DHT22;62136;-35.664;-63.766;2023-05-10T06:53:38;18.10;53.90
59975;DHT22;62136;-35.664;-63.766;2023-05-10T06:56:05;18.10;53.80
59975;DHT22;62136;-35.664;-63.766;2023-05-10T06:58:32;18.10;53.90
59975;DHT22;62136;-35.664;-63.766;2023-05-10T07:01:03;18.10;53.80
59975;DHT22;62136;-35.664;-63.766;2023-05-10T07:03:31;18.10;53.80
59975;DHT22;62136;-35.664;-63.766;2023-05-10T07:06:04;18.10;53.80
59975;DHT22;62136;-35.664;-63.766;2023-05-10T07:08:33;18.00;53.80
59975;DHT22;62136;-35.664;-63.766;2023-05-10T07:11:04;18.00;53.70
59975;DHT22;62136;-35.664;-63.766;2023-05-10T07:13:31;18.00;53.80
59975;DHT22;62136;-35.664;-63.766;2023-05-10T07:15:59;17.90;53.80
59975;DHT22;62136;-35.664;-63.766;2023-05-10T07:18:27;17.90;53.70
59975;DHT22;62136;-35.664;-63.766;2023-05-10T07:20:54;17.90;53.70
59975;DHT22;62136;-35.664;-63.766;2023-05-10T07:23:21;17.90;53.70
59975;DHT22;62136;-35.664;-63.766;2023-05-10T07:25:49;17.90;53.90
59975;DHT22;62136;-35.664;-63.766;2023-05-10T07:28:17;17.90;53.70
59975;DHT22;62136;-35.664;-63.766;2023-05-10T07:30:45;17.90;53.70
59975;DHT22;62136;-35.664;-63.766;2023-05-10T07:33:13;17.90;53.70
59975;DHT22;62136;-35.664;-63.766;2023-05-10T07:35:41;17.90;53.60
59975;DHT22;62136;-35.664;-63.766;2023-05-10T07:38:09;17.90;53.60
59975;DHT22;62136;-35.664;-63.766;2023-05-10T07:40:37;17.90;53.60
59975;DHT22;62136;-35.664;-63.766;2023-05-10T07:43:04;17.90;53.60
59975;DHT22;62136;-35.664;-63.766;2023-05-10T07:45:32;17.90;53.60
59975;DHT22;62136;-35.664;-63.766;2023-05-10T07:47:59;17.80;53.60
59975;DHT22;62136;-35.664;-63.766;2023-05-10T07:50:26;17.80;53.50
59975;DHT22;62136;-35.664;-63.766;2023-05-10T07:52:53;17.80;53.50
59975;DHT22;62136;-35.664;-63.766;2023-05-10T07:55:21;17.80;53.50
59975;DHT22;62136;-35.664;-63.766;2023-05-10T07:57:48;17.80;53.50
59975;DHT22;62136;-35.664;-63.766;2023-05-10T08:00:18;17.80;53.60
59975;DHT22;62136;-35.664;-63.766;2023-05-10T08:02:46;17.80;53.50
59975;DHT22;62136;-35.664;-63.766;2023-05-10T08:05:14;17.80;53.50
59975;DHT22;62136;-35.664;-63.766;2023-05-10T08:07:41;17.70;53.40
59975;DHT22;62136;-35.664;-63.766;2023-05-10T08:10:09;17.70;53.40
59975;DHT22;62136;-35.664;-63.766;2023-05-10T08:12:37;17.70;53.90
59975;DHT22;62136;-35.664;-63.766;2023-05-10T08:15:05;17.70;53.50
59975;DHT22;62136;-35.664;-63.766;2023-05-10T08:17:33;17.70;53.40
59975;DHT22;62136;-35.664;-63.766;2023-05-10T08:20:00;17.70;53.40
59975;DHT22;62136;-35.664;-63.766;2023-05-10T08:22:27;17.70;53.30
59975;DHT22;62136;-35.664;-63.766;2023-05-10T08:24:55;17.70;53.40
59975;DHT22;62136;-35.664;-63.766;2023-05-10T08:27:22;17.60;53.40
59975;DHT22;62136;-35.664;-63.766;2023-05-10T08:29:49;17.60;53.30
59975;DHT22;62136;-35.664;-63.766;2023-05-10T08:32:16;17.60;53.30
59975;DHT22;62136;-35.664;-63.766;2023-05-10T08:34:43;17.60;53.30
59975;DHT22;62136;-35.664;-63.766;2023-05-10T08:37:11;17.60;53.30
59975;DHT22;62136;-35.664;-63.766;2023-05-10T08:39:39;17.60;53.20
59975;DHT22;62136;-35.664;-63.766;2023-05-10T08:42:06;17.60;53.30
59975;DHT22;62136;-35.664;-63.766;2023-05-10T08:44:35;17.60;53.30
59975;DHT22;62136;-35.664;-63.766;2023-05-10T08:47:05;17.60;53.30
59975;DHT22;62136;-35.664;-63.766;2023-05-10T08:49:35;17.60;53.20
59975;DHT22;62136;-35.664;-63.766;2023-05-10T08:52:04;17.50;53.20
59975;DHT22;62136;-35.664;-63.766;2023-05-10T08:54:33;17.50;53.20
59975;DHT22;62136;-35.664;-63.766;2023-05-10T08:57:01;17.50;53.20
59975;DHT22;62136;-35.664;-63.766;2023-05-10T08:59:29;17.50;53.20
59975;DHT22;62136;-35.664;-63.766;2023-05-10T09:01:59;17.50;53.10
59975;DHT22;62136;-35.664;-63.766;2023-05-10T09:04:27;17.50;53.10
59975;DHT22;62136;-35.664;-63.766;2023-05-10T09:06:55;17.40;53.10
59975;DHT22;62136;-35.664;-63.766;2023-05-10T09:09:22;17.40;53.00
59975;DHT22;62136;-35.664;-63.766;2023-05-10T09:11:51;17.40;53.00
59975;DHT22;62136;-35.664;-63.766;2023-05-10T09:14:19;17.40;53.10
59975;DHT22;62136;-35.664;-63.766;2023-05-10T09:16:47;17.40;53.00
59975;DHT22;62136;-35.664;-63.766;2023-05-10T09:19:15;17.40;53.00
59975;DHT22;62136;-35.664;-63.766;2023-05-10T09:21:42;17.40;53.00
59975;DHT22;62136;-35.664;-63.766;2023-05-10T09:24:09;17.40;53.00
59975;DHT22;62136;-35.664;-63.766;2023-05-10T09:26:48;17.40;53.10
59975;DHT22;62136;-35.664;-63.766;2023-05-10T09:29:15;17.30;53.00
59975;DHT22;62136;-35.664;-63.766;2023-05-10T09:34:09;17.30;53.00
59975;DHT22;62136;-35.664;-63.766;2023-05-10T09:36:37;17.30;52.90
59975;DHT22;62136;-35.664;-63.766;2023-05-10T09:39:15;17.30;52.90
59975;DHT22;62136;-35.664;-63.766;2023-05-10T09:41:42;17.30;52.90
59975;DHT22;62136;-35.664;-63.766;2023-05-10T09:44:10;17.30;52.90
59975;DHT22;62136;-35.664;-63.766;2023-05-10T09:46:37;17.30;52.90
59975;DHT22;62136;-35.664;-63.766;2023-05-10T09:49:06;17.30;52.90
59975;DHT22;62136;-35.664;-63.766;2023-05-10T09:51:33;17.30;52.80
59975;DHT22;62136;-35.664;-63.766;2023-05-10T09:54:18;17.20;52.80
59975;DHT22;62136;-35.664;-63.766;2023-05-10T09:56:45;17.20;52.90
59975;DHT22;62136;-35.664;-63.766;2023-05-10T09:59:12;17.20;52.90
59975;DHT22;62136;-35.664;-63.766;2023-05-10T10:01:40;17.20;52.90
59975;DHT22;62136;-35.664;-63.766;2023-05-10T10:04:09;17.20;52.90
59975;DHT22;62136;-35.664;-63.766;2023-05-10T10:06:38;17.20;52.90
59975;DHT22;62136;-35.664;-63.766;2023-05-10T10:09:06;17.20;52.80
59975;DHT22;62136;-35.664;-63.766;2023-05-10T10:11:38;17.20;52.80
59975;DHT22;62136;-35.664;-63.766;2023-05-10T10:14:06;17.20;52.80
59975;DHT22;62136;-35.664;-63.766;2023-05-10T10:16:35;17.20;52.80
59975;DHT22;62136;-35.664;-63.766;2023-05-10T10:19:04;17.10;52.70
59975;DHT22;62136;-35.664;-63.766;2023-05-10T10:21:33;17.10;52.70
59975;DHT22;62136;-35.664;-63.766;2023-05-10T10:24:00;17.10;52.70
59975;DHT22;62136;-35.664;-63.766;2023-05-10T10:26:28;17.10;52.70
59975;DHT22;62136;-35.664;-63.766;2023-05-10T10:34:29;17.10;52.70
59975;DHT22;62136;-35.664;-63.766;2023-05-10T10:36:57;17.00;52.70
59975;DHT22;62136;-35.664;-63.766;2023-05-10T10:39:25;17.00;52.70
59975;DHT22;62136;-35.664;-63.766;2023-05-10T10:41:55;17.10;52.70
59975;DHT22;62136;-35.664;-63.766;2023-05-10T10:57:52;17.00;52.60
59975;DHT22;62136;-35.664;-63.766;2023-05-10T11:03:15;17.00;52.30
59975;DHT22;62136;-35.664;-63.766;2023-05-10T11:05:58;16.90;52.00
59975;DHT22;62136;-35.664;-63.766;2023-05-10T11:08:29;16.90;51.70
59975;DHT22;62136;-35.664;-63.766;2023-05-10T11:11:03;16.90;51.50
59975;DHT22;62136;-35.664;-63.766;2023-05-10T11:13:46;16.80;51.30
59975;DHT22;62136;-35.664;-63.766;2023-05-10T11:19:04;16.80;51.00
59975;DHT22;62136;-35.664;-63.766;2023-05-10T11:21:33;16.80;51.10
59975;DHT22;62136;-35.664;-63.766;2023-05-10T11:24:01;16.80;51.20
59975;DHT22;62136;-35.664;-63.766;2023-05-10T11:26:35;16.80;51.30
59975;DHT22;62136;-35.664;-63.766;2023-05-10T11:29:04;16.80;51.20
59975;DHT22;62136;-35.664;-63.766;2023-05-10T11:31:32;16.80;51.20
59975;DHT22;62136;-35.664;-63.766;2023-05-10T11:34:00;16.70;51.00
59975;DHT22;62136;-35.664;-63.766;2023-05-10T11:36:35;16.70;51.20
59975;DHT22;62136;-35.664;-63.766;2023-05-10T11:39:03;16.70;51.20
59975;DHT22;62136;-35.664;-63.766;2023-05-10T11:41:31;16.70;51.30
59975;DHT22;62136;-35.664;-63.766;2023-05-10T11:44:01;16.70;51.30
59975;DHT22;62136;-35.664;-63.766;2023-05-10T11:46:31;16.70;51.30
59975;DHT22;62136;-35.664;-63.766;2023-05-10T11:49:01;16.70;51.30
59975;DHT22;62136;-35.664;-63.766;2023-05-10T11:51:34;16.70;51.50
59975;DHT22;62136;-35.664;-63.766;2023-05-10T11:54:10;16.70;51.80
59975;DHT22;62136;-35.664;-63.766;2023-05-10T11:56:40;16.80;51.80
59975;DHT22;62136;-35.664;-63.766;2023-05-10T11:59:07;17.40;51.20
59975;DHT22;62136;-35.664;-63.766;2023-05-10T12:01:35;18.00;50.20
59975;DHT22;62136;-35.664;-63.766;2023-05-10T12:04:03;18.70;49.00
59975;DHT22;62136;-35.664;-63.766;2023-05-10T12:06:32;19.20;47.80
59975;DHT22;62136;-35.664;-63.766;2023-05-10T12:09:06;19.80;47.00
59975;DHT22;62136;-35.664;-63.766;2023-05-10T12:11:38;20.30;46.20
59975;DHT22;62136;-35.664;-63.766;2023-05-10T12:14:07;20.90;45.30
59975;DHT22;62136;-35.664;-63.766;2023-05-10T12:16:36;21.30;45.10
59975;DHT22;62136;-35.664;-63.766;2023-05-10T12:19:03;21.70;44.90
59975;DHT22;62136;-35.664;-63.766;2023-05-10T12:21:34;22.20;44.00
59975;DHT22;62136;-35.664;-63.766;2023-05-10T12:24:04;22.40;43.80
59975;DHT22;62136;-35.664;-63.766;2023-05-10T12:26:35;22.80;43.80
59975;DHT22;62136;-35.664;-63.766;2023-05-10T12:29:16;23.10;43.50
59975;DHT22;62136;-35.664;-63.766;2023-05-10T12:31:57;23.30;43.10
59975;DHT22;62136;-35.664;-63.766;2023-05-10T12:34:43;23.60;42.90
59975;DHT22;62136;-35.664;-63.766;2023-05-10T12:37:13;23.80;42.80
59975;DHT22;62136;-35.664;-63.766;2023-05-10T12:39:44;23.60;42.90
59975;DHT22;62136;-35.664;-63.766;2023-05-10T12:42:12;23.30;43.30
59975;DHT22;62136;-35.664;-63.766;2023-05-10T12:44:39;23.00;44.00
59975;DHT22;62136;-35.664;-63.766;2023-05-10T12:47:08;22.60;44.90
59975;DHT22;62136;-35.664;-63.766;2023-05-10T12:49:39;22.50;45.30
59975;DHT22;62136;-35.664;-63.766;2023-05-10T12:52:06;22.70;45.00
59975;DHT22;62136;-35.664;-63.766;2023-05-10T12:54:35;23.00;44.40
59975;DHT22;62136;-35.664;-63.766;2023-05-10T12:57:02;23.30;43.40
59975;DHT22;62136;-35.664;-63.766;2023-05-10T12:59:30;23.70;42.80
59975;DHT22;62136;-35.664;-63.766;2023-05-10T13:02:00;23.90;42.00
59975;DHT22;62136;-35.664;-63.766;2023-05-10T13:04:27;23.60;42.40
59975;DHT22;62136;-35.664;-63.766;2023-05-10T13:06:59;23.40;42.60
59975;DHT22;62136;-35.664;-63.766;2023-05-10T13:09:27;23.00;43.10
59975;DHT22;62136;-35.664;-63.766;2023-05-10T13:11:57;22.70;43.90
59975;DHT22;62136;-35.664;-63.766;2023-05-10T13:14:25;22.60;43.50
59975;DHT22;62136;-35.664;-63.766;2023-05-10T13:16:52;22.80;43.10
59975;DHT22;62136;-35.664;-63.766;2023-05-10T13:19:21;23.30;42.10
59975;DHT22;62136;-35.664;-63.766;2023-05-10T13:21:49;23.60;41.50
59975;DHT22;62136;-35.664;-63.766;2023-05-10T13:24:18;23.80;41.10
59975;DHT22;62136;-35.664;-63.766;2023-05-10T13:26:45;23.70;40.90
59975;DHT22;62136;-35.664;-63.766;2023-05-10T13:29:12;23.40;41.20
59975;DHT22;62136;-35.664;-63.766;2023-05-10T13:31:40;23.10;41.90
59975;DHT22;62136;-35.664;-63.766;2023-05-10T13:34:10;22.80;42.30
59975;DHT22;62136;-35.664;-63.766;2023-05-10T13:36:37;22.60;43.20
59975;DHT22;62136;-35.664;-63.766;2023-05-10T13:39:07;22.90;43.10
59975;DHT22;62136;-35.664;-63.766;2023-05-10T13:41:34;23.40;42.40
59975;DHT22;62136;-35.664;-63.766;2023-05-10T13:44:04;23.80;41.90
59975;DHT22;62136;-35.664;-63.766;2023-05-10T13:46:34;24.00;42.00
59975;DHT22;62136;-35.664;-63.766;2023-05-10T13:49:01;23.80;41.70
59975;DHT22;62136;-35.664;-63.766;2023-05-10T13:51:28;23.60;42.00
59975;DHT22;62136;-35.664;-63.766;2023-05-10T13:53:55;23.30;42.50
59975;DHT22;62136;-35.664;-63.766;2023-05-10T13:56:22;23.00;43.30
59975;DHT22;62136;-35.664;-63.766;2023-05-10T13:58:56;22.80;44.00
59975;DHT22;62136;-35.664;-63.766;2023-05-10T14:01:24;22.60;44.60
59975;DHT22;62136;-35.664;-63.766;2023-05-10T14:03:51;22.90;44.20
59975;DHT22;62136;-35.664;-63.766;2023-05-10T14:06:18;23.40;43.70
59975;DHT22;62136;-35.664;-63.766;2023-05-10T14:08:45;23.90;42.80
59975;DHT22;62136;-35.664;-63.766;2023-05-10T14:11:14;23.90;42.80
59975;DHT22;62136;-35.664;-63.766;2023-05-10T14:13:47;23.90;42.90
59975;DHT22;62136;-35.664;-63.766;2023-05-10T14:16:14;23.60;43.70
59975;DHT22;62136;-35.664;-63.766;2023-05-10T14:18:44;23.40;44.50
59975;DHT22;62136;-35.664;-63.766;2023-05-10T14:21:23;23.10;45.10
59975;DHT22;62136;-35.664;-63.766;2023-05-10T14:23:52;22.90;46.40
59975;DHT22;62136;-35.664;-63.766;2023-05-10T14:26:20;22.70;47.60
59975;DHT22;62136;-35.664;-63.766;2023-05-10T14:28:48;22.50;48.40
59975;DHT22;62136;-35.664;-63.766;2023-05-10T14:31:15;22.40;49.30
59975;DHT22;62136;-35.664;-63.766;2023-05-10T14:36:12;22.00;50.90
59975;DHT22;62136;-35.664;-63.766;2023-05-10T14:38:40;21.90;50.70
59975;DHT22;62136;-35.664;-63.766;2023-05-10T14:41:09;21.90;53.50
59975;DHT22;62136;-35.664;-63.766;2023-05-10T14:43:41;21.80;54.70
59975;DHT22;62136;-35.664;-63.766;2023-05-10T14:46:08;21.80;55.10
59975;DHT22;62136;-35.664;-63.766;2023-05-10T14:48:37;21.70;55.30
59975;DHT22;62136;-35.664;-63.766;2023-05-10T14:51:06;21.70;55.90
59975;DHT22;62136;-35.664;-63.766;2023-05-10T14:53:38;21.70;55.30
59975;DHT22;62136;-35.664;-63.766;2023-05-10T14:56:08;21.60;55.70
59975;DHT22;62136;-35.664;-63.766;2023-05-10T14:58:35;21.60;56.20
59975;DHT22;62136;-35.664;-63.766;2023-05-10T15:01:05;21.60;57.40
59975;DHT22;62136;-35.664;-63.766;2023-05-10T15:03:32;21.60;59.30
59975;DHT22;62136;-35.664;-63.766;2023-05-10T15:06:03;21.60;59.80
59975;DHT22;62136;-35.664;-63.766;2023-05-10T15:08:31;21.60;59.70
59975;DHT22;62136;-35.664;-63.766;2023-05-10T15:10:58;21.60;59.50
59975;DHT22;62136;-35.664;-63.766;2023-05-10T15:13:25;21.70;59.80
59975;DHT22;62136;-35.664;-63.766;2023-05-10T15:15:53;21.70;60.50
59975;DHT22;62136;-35.664;-63.766;2023-05-10T15:18:22;21.70;60.50
59975;DHT22;62136;-35.664;-63.766;2023-05-10T15:20:53;21.80;61.10
59975;DHT22;62136;-35.664;-63.766;2023-05-10T15:23:21;21.80;61.40
59975;DHT22;62136;-35.664;-63.766;2023-05-10T15:25:49;21.90;60.80
59975;DHT22;62136;-35.664;-63.766;2023-05-10T15:28:18;21.90;60.10
59975;DHT22;62136;-35.664;-63.766;2023-05-10T15:30:46;21.90;59.10
59975;DHT22;62136;-35.664;-63.766;2023-05-10T15:33:13;21.90;59.00
59975;DHT22;62136;-35.664;-63.766;2023-05-10T15:35:41;21.90;58.70
59975;DHT22;62136;-35.664;-63.766;2023-05-10T15:38:10;21.90;59.30
59975;DHT22;62136;-35.664;-63.766;2023-05-10T15:40:37;21.90;59.40
59975;DHT22;62136;-35.664;-63.766;2023-05-10T15:43:05;21.90;58.70